Time;durP1;ratioP1;P1;durP2;ratioP2;P2;SDS_P1;SDS_P2;PMS_P1;PMS_P2;Temp;Humidity;BMP_temperature;BMP_pressure;BME280_temperature;BME280_humidity;BME280_pressure;Samples;Min_cycle;Max_cycle;Signal;HPM_P1;HPM_P2
2022/11/18 00:00:55;;;;;;;8.57;3.10;;;11.70;95.60;;;;;;5075308;28;20475;-69
2022/11/18 00:03:22;;;;;;;7.87;2.70;;;11.70;95.60;;;;;;5075513;28;20469;-69
2022/11/18 00:05:57;;;;;;;5.30;2.93;;;11.70;95.60;;;;;;5075402;28;20490;-69
2022/11/18 00:08:25;;;;;;;5.30;2.67;;;11.70;95.50;;;;;;5075919;28;20448;-69
2022/11/18 00:10:52;;;;;;;7.40;2.83;;;11.70;95.50;;;;;;5077170;28;20452;-69
2022/11/18 00:16:06;;;;;;;8.60;3.13;;;11.80;95.50;;;;;;5075123;28;20408;-69
2022/11/18 00:18:33;;;;;;;5.67;3.60;;;11.70;95.40;;;;;;5075319;28;20451;-69
2022/11/18 00:21:03;;;;;;;6.80;2.67;;;11.80;95.50;;;;;;5074994;28;20496;-69
2022/11/18 00:23:30;;;;;;;5.13;2.80;;;11.70;95.40;;;;;;5075332;28;20481;-69
2022/11/18 00:26:02;;;;;;;9.23;3.80;;;11.70;95.40;;;;;;5075059;28;20484;-69
2022/11/18 00:28:29;;;;;;;5.10;2.80;;;11.80;95.50;;;;;;5074519;28;20857;-69
2022/11/18 00:31:01;;;;;;;6.03;2.90;;;11.70;95.40;;;;;;5075588;28;20433;-69
2022/11/18 00:33:28;;;;;;;3.87;3.00;;;11.80;95.50;;;;;;5074799;28;21015;-69
2022/11/18 00:35:55;;;;;;;7.57;3.20;;;11.80;95.60;;;;;;5074535;28;20451;-69
2022/11/18 00:38:24;;;;;;;7.20;3.63;;;11.70;95.60;;;;;;5074251;28;20436;-69
2022/11/18 00:40:59;;;;;;;5.43;3.00;;;11.80;95.70;;;;;;5074446;28;20451;-69
2022/11/18 00:43:24;;;;;;;7.50;3.50;;;11.80;95.80;;;;;;5074034;28;20475;-69
2022/11/18 00:45:51;;;;;;;6.73;2.60;;;11.70;95.80;;;;;;5073900;28;20487;-69
2022/11/18 00:48:20;;;;;;;3.70;2.00;;;11.80;95.80;;;;;;5074277;28;20213;-69
2022/11/18 00:50:47;;;;;;;19.17;3.73;;;11.70;95.70;;;;;;5074278;28;20441;-69
2022/11/18 00:53:14;;;;;;;6.70;3.00;;;11.70;95.70;;;;;;5074102;28;20469;-69
2022/11/18 00:55:43;;;;;;;5.03;2.53;;;11.70;95.80;;;;;;5074286;28;20441;-69
2022/11/18 00:58:12;;;;;;;6.37;2.60;;;11.70;95.90;;;;;;5073669;28;20448;-69
2022/11/18 01:00:40;;;;;;;6.30;3.10;;;11.60;95.90;;;;;;5073850;28;20882;-69
2022/11/18 01:03:06;;;;;;;3.87;2.17;;;11.60;96.10;;;;;;5074060;28;20465;-69
2022/11/18 01:05:33;;;;;;;3.00;2.43;;;11.50;96.10;;;;;;5073955;28;20479;-69
2022/11/18 01:08:00;;;;;;;6.80;2.07;;;11.50;96.20;;;;;;5074008;28;20442;-69
2022/11/18 01:10:26;;;;;;;4.50;2.53;;;11.50;96.20;;;;;;5073940;28;20447;-69
2022/11/18 01:15:40;;;;;;;5.63;2.40;;;11.40;96.50;;;;;;5074055;28;21017;-69
2022/11/18 01:18:06;;;;;;;4.10;2.10;;;11.30;96.50;;;;;;5073851;28;20452;-69
2022/11/18 01:20:34;;;;;;;7.23;2.40;;;11.30;96.70;;;;;;5073712;28;20445;-69
2022/11/18 01:23:01;;;;;;;4.63;2.20;;;11.30;96.70;;;;;;5073764;28;20848;-69
2022/11/18 01:25:29;;;;;;;5.30;2.13;;;11.30;96.70;;;;;;5073591;28;20482;-69
2022/11/18 01:27:57;;;;;;;3.97;2.30;;;11.30;96.80;;;;;;5073342;28;20950;-69
2022/11/18 01:30:24;;;;;;;6.23;1.97;;;11.20;96.80;;;;;;5073769;28;20898;-69
2022/11/18 01:32:50;;;;;;;7.03;2.10;;;11.20;96.80;;;;;;5073645;28;20995;-69
2022/11/18 01:35:17;;;;;;;4.00;2.00;;;11.20;96.90;;;;;;5073506;28;20456;-69
2022/11/18 01:37:44;;;;;;;3.00;2.70;;;11.20;96.90;;;;;;5073410;28;20462;-69
2022/11/18 01:40:11;;;;;;;6.63;2.60;;;11.30;96.90;;;;;;5073425;28;20455;-69
2022/11/18 01:42:38;;;;;;;6.87;2.80;;;11.30;96.90;;;;;;5074017;28;20495;-69
2022/11/18 01:45:19;;;;;;;5.17;1.90;;;11.30;96.90;;;;;;5073376;28;20452;-69
2022/11/18 01:47:51;;;;;;;3.40;2.27;;;11.30;96.80;;;;;;5073512;28;20428;-69
2022/11/18 01:50:20;;;;;;;5.17;2.40;;;11.30;96.80;;;;;;5073542;28;20439;-69
2022/11/18 01:52:48;;;;;;;3.23;1.90;;;11.30;96.80;;;;;;5073408;28;20466;-69
2022/11/18 01:55:21;;;;;;;2.67;1.63;;;11.40;96.80;;;;;;5073463;28;20435;-68
2022/11/18 01:57:50;;;;;;;3.17;1.50;;;11.40;96.80;;;;;;5073286;28;20436;-68
2022/11/18 02:00:19;;;;;;;5.03;2.37;;;11.40;96.70;;;;;;5073647;28;20452;-69
2022/11/18 02:02:46;;;;;;;4.47;1.83;;;11.50;96.70;;;;;;5073293;28;20476;-69
2022/11/18 02:05:14;;;;;;;2.93;1.70;;;11.50;96.60;;;;;;5073778;28;20453;-69
2022/11/18 02:07:43;;;;;;;4.87;1.90;;;11.50;96.60;;;;;;5074907;28;20448;-69
2022/11/18 02:10:17;;;;;;;4.50;2.07;;;11.50;96.50;;;;;;5076794;28;20443;-69
2022/11/18 02:12:44;;;;;;;5.30;2.67;;;11.50;96.50;;;;;;5077436;28;20521;-69
2022/11/18 02:15:11;;;;;;;2.57;1.77;;;11.50;96.40;;;;;;5077434;28;20483;-69
2022/11/18 02:17:48;;;;;;;5.33;1.97;;;11.50;96.40;;;;;;5077176;28;20455;-69
2022/11/18 02:20:34;;;;;;;5.67;2.20;;;11.50;96.40;;;;;;5077476;28;20428;-69
2022/11/18 02:23:35;;;;;;;7.37;2.83;;;11.50;96.40;;;;;;5077198;28;20830;-69
2022/11/18 02:27:05;;;;;;;5.43;2.73;;;11.50;96.40;;;;;;5077173;28;20466;-69
2022/11/18 02:29:40;;;;;;;6.03;2.10;;;11.50;96.50;;;;;;4956627;29;20967;-69
2022/11/18 02:32:13;;;;;;;6.63;2.00;;;11.50;96.50;;;;;;4988232;28;20483;-69
2022/11/18 02:34:47;;;;;;;2.97;1.70;;;11.50;96.40;;;;;;5055986;28;20790;-69
2022/11/18 02:37:20;;;;;;;5.23;2.50;;;11.50;96.40;;;;;;5076701;28;20451;-69
2022/11/18 02:39:54;;;;;;;2.93;1.70;;;11.50;96.40;;;;;;5076589;28;21029;-69
2022/11/18 02:42:22;;;;;;;6.33;2.50;;;11.50;96.40;;;;;;5076944;28;20475;-69
2022/11/18 02:44:54;;;;;;;3.33;2.10;;;11.50;96.40;;;;;;5077035;28;20939;-69
2022/11/18 02:47:22;;;;;;;2.90;2.00;;;11.50;96.40;;;;;;5076950;28;20490;-69
2022/11/18 02:49:54;;;;;;;5.80;1.83;;;11.50;96.40;;;;;;5076624;28;20914;-69
2022/11/18 02:52:22;;;;;;;5.07;1.90;;;11.40;96.40;;;;;;5077507;28;20468;-69
2022/11/18 02:54:50;;;;;;;6.60;2.63;;;11.40;96.50;;;;;;5077184;28;20451;-69
2022/11/18 02:57:19;;;;;;;6.30;2.40;;;11.40;96.50;;;;;;5076620;28;20425;-69
2022/11/18 02:59:45;;;;;;;4.97;2.10;;;11.40;96.60;;;;;;5076507;28;20447;-69
2022/11/18 03:02:17;;;;;;;3.40;2.13;;;11.30;96.70;;;;;;5076564;28;20475;-69
2022/11/18 03:04:45;;;;;;;4.00;2.50;;;11.30;96.90;;;;;;5076527;28;20436;-69
2022/11/18 03:07:15;;;;;;;5.00;2.37;;;11.20;96.90;;;;;;5076089;28;21005;-69
2022/11/18 03:09:47;;;;;;;4.47;2.33;;;11.30;97.20;;;;;;5076213;28;20448;-69
2022/11/18 03:12:22;;;;;;;5.33;2.80;;;11.30;97.10;;;;;;5077054;28;20504;-69
2022/11/18 03:15:00;;;;;;;4.53;2.00;;;11.20;97.10;;;;;;5076576;28;20802;-69
2022/11/18 03:17:37;;;;;;;10.20;2.67;;;11.20;97.20;;;;;;5076267;28;20425;-69
2022/11/18 03:20:15;;;;;;;4.80;2.40;;;11.20;97.20;;;;;;5074893;28;20910;-69
2022/11/18 03:22:47;;;;;;;5.13;2.17;;;11.20;97.20;;;;;;5076764;28;20479;-69
2022/11/18 03:25:20;;;;;;;8.10;2.23;;;11.20;97.30;;;;;;5076177;28;20456;-69
2022/11/18 03:27:52;;;;;;;4.23;2.43;;;11.20;97.30;;;;;;5076081;28;20477;-69
2022/11/18 03:30:21;;;;;;;10.67;2.67;;;11.30;97.40;;;;;;5076026;28;20421;-69
2022/11/18 03:32:55;;;;;;;6.90;2.67;;;11.20;97.30;;;;;;5075910;28;20557;-69
2022/11/18 03:35:25;;;;;;;8.17;2.27;;;11.20;97.30;;;;;;5075872;28;20432;-69
2022/11/18 03:37:58;;;;;;;4.40;2.30;;;11.20;97.30;;;;;;5075788;28;20467;-69
2022/11/18 03:40:31;;;;;;;8.27;1.90;;;11.30;97.30;;;;;;5075782;28;20443;-69
2022/11/18 03:43:02;;;;;;;5.40;2.40;;;11.30;97.30;;;;;;5076127;28;20498;-69
2022/11/18 03:45:34;;;;;;;5.30;1.97;;;11.30;97.30;;;;;;5076472;28;20432;-69
2022/11/18 03:48:07;;;;;;;7.40;2.40;;;11.30;97.20;;;;;;5078195;28;20989;-69
2022/11/18 03:50:37;;;;;;;7.80;2.80;;;11.30;97.20;;;;;;5083151;28;20444;-69
2022/11/18 03:53:07;;;;;;;4.90;2.40;;;11.40;97.20;;;;;;5088012;28;20480;-69
2022/11/18 03:55:38;;;;;;;8.17;2.93;;;11.30;97.10;;;;;;5091631;28;20448;-69
2022/11/18 03:58:11;;;;;;;8.63;2.73;;;11.40;97.20;;;;;;5092583;28;20436;-69
2022/11/18 04:00:43;;;;;;;7.00;2.13;;;11.40;97.10;;;;;;5090008;28;20436;-69
2022/11/18 04:03:12;;;;;;;5.37;2.30;;;11.40;97.10;;;;;;5085195;28;21000;-69
2022/11/18 04:05:41;;;;;;;4.97;1.90;;;11.40;97.00;;;;;;5079733;28;20448;-69
2022/11/18 04:08:11;;;;;;;9.50;2.77;;;11.40;96.90;;;;;;5075729;28;20445;-69
2022/11/18 04:10:42;;;;;;;10.03;2.50;;;11.40;96.90;;;;;;5075322;28;20801;-69
2022/11/18 04:13:15;;;;;;;5.80;2.40;;;11.50;97.00;;;;;;5075106;28;20468;-69
2022/11/18 04:15:42;;;;;;;7.20;2.53;;;11.50;97.00;;;;;;5074879;28;20923;-69
2022/11/18 04:18:11;;;;;;;4.50;1.67;;;11.50;96.90;;;;;;5078035;28;20444;-68
2022/11/18 04:20:38;;;;;;;4.17;2.47;;;11.50;96.80;;;;;;5081286;28;20459;-68
2022/11/18 04:23:06;;;;;;;5.77;2.20;;;11.50;96.80;;;;;;5076325;28;20472;-69
2022/11/18 04:25:33;;;;;;;9.53;2.53;;;11.50;96.80;;;;;;5075194;28;20452;-69
2022/11/18 04:28:00;;;;;;;8.30;2.47;;;11.50;96.70;;;;;;5074963;28;20468;-69
2022/11/18 04:30:27;;;;;;;7.87;2.83;;;11.50;96.70;;;;;;5074818;28;20463;-69
2022/11/18 04:32:53;;;;;;;9.90;2.13;;;11.50;96.60;;;;;;5074677;28;20481;-69
2022/11/18 04:35:21;;;;;;;6.33;1.90;;;11.50;97.00;;;;;;5074661;28;20451;-69
2022/11/18 04:37:48;;;;;;;5.83;2.20;;;11.50;96.60;;;;;;5074315;28;20452;-69
2022/11/18 04:40:15;;;;;;;10.33;2.73;;;11.50;96.50;;;;;;5075362;28;20442;-68
2022/11/18 04:42:42;;;;;;;10.23;2.97;;;11.50;96.60;;;;;;5076905;28;20985;-68
2022/11/18 04:45:10;;;;;;;7.63;1.90;;;11.50;96.70;;;;;;5078062;28;20473;-68
2022/11/18 04:47:36;;;;;;;6.70;2.40;;;11.50;96.80;;;;;;5079597;28;20482;-68
2022/11/18 04:50:04;;;;;;;5.70;2.27;;;11.60;97.00;;;;;;5079455;28;20454;-69
2022/11/18 04:52:32;;;;;;;9.13;3.00;;;11.60;97.00;;;;;;5078259;28;20487;-69
2022/11/18 04:54:59;;;;;;;7.67;2.60;;;11.50;97.00;;;;;;5078069;28;20914;-69
2022/11/18 04:57:25;;;;;;;6.00;1.90;;;11.50;97.10;;;;;;5077130;28;20451;-69
2022/11/18 04:59:52;;;;;;;2.90;1.70;;;11.50;97.00;;;;;;5077279;28;20443;-69
2022/11/18 05:02:19;;;;;;;8.17;2.20;;;11.50;97.00;;;;;;5076326;28;20470;-69
2022/11/18 05:04:46;;;;;;;8.80;2.57;;;11.50;97.00;;;;;;5077016;28;20848;-69
2022/11/18 05:07:15;;;;;;;5.53;2.37;;;11.50;97.00;;;;;;5076432;28;20486;-69
2022/11/18 05:09:43;;;;;;;9.90;2.03;;;11.50;97.00;;;;;;5076150;28;20501;-69
2022/11/18 05:14:58;;;;;;;8.83;1.97;;;11.50;97.10;;;;;;5048681;28;20962;-69
2022/11/18 05:17:25;;;;;;;7.60;2.33;;;11.50;97.10;;;;;;5075419;28;20467;-69
2022/11/18 05:19:52;;;;;;;8.73;2.30;;;11.50;97.10;;;;;;5077968;28;20810;-69
2022/11/18 05:22:18;;;;;;;3.17;1.63;;;11.50;97.10;;;;;;5076311;28;20472;-69
2022/11/18 05:24:47;;;;;;;4.53;2.40;;;11.50;96.90;;;;;;5074871;28;20433;-68
2022/11/18 05:27:14;;;;;;;8.23;2.30;;;11.40;96.80;;;;;;5074514;28;20471;-68
2022/11/18 05:29:41;;;;;;;6.07;2.23;;;11.40;96.90;;;;;;5074753;28;20452;-68
2022/11/18 05:32:08;;;;;;;8.10;2.10;;;11.40;96.90;;;;;;5076735;28;20890;-68
2022/11/18 05:34:34;;;;;;;5.00;1.87;;;11.40;96.90;;;;;;5075823;28;20447;-68
2022/11/18 05:37:01;;;;;;;4.10;1.60;;;11.40;96.90;;;;;;5075047;28;20974;-69
2022/11/18 05:39:28;;;;;;;11.83;2.30;;;11.40;97.00;;;;;;5076304;28;20458;-68
2022/11/18 05:44:40;;;;;;;8.40;1.80;;;11.40;97.10;;;;;;5077612;28;20416;-69
2022/11/18 05:47:07;;;;;;;6.40;2.27;;;11.40;97.10;;;;;;5077795;28;20495;-69
2022/11/18 05:49:33;;;;;;;1.90;1.43;;;11.40;97.10;;;;;;5077459;28;20443;-69
2022/11/18 05:52:00;;;;;;;8.30;1.87;;;11.40;97.10;;;;;;5075896;28;20450;-69
2022/11/18 05:54:28;;;;;;;4.13;1.67;;;11.40;97.00;;;;;;5074378;28;20451;-68
2022/11/18 05:56:56;;;;;;;3.20;1.83;;;11.40;97.10;;;;;;5075559;28;20443;-69
2022/11/18 05:59:23;;;;;;;5.03;1.43;;;11.40;97.10;;;;;;5076918;28;20531;-69
2022/11/18 06:01:54;;;;;;;4.13;1.50;;;11.40;97.20;;;;;;5076322;28;20436;-69
2022/11/18 06:04:25;;;;;;;3.83;1.87;;;11.40;97.20;;;;;;5076170;28;20431;-69
2022/11/18 06:06:55;;;;;;;2.93;1.53;;;11.30;97.30;;;;;;5076209;28;20465;-69
2022/11/18 06:09:28;;;;;;;6.80;1.97;;;11.40;97.40;;;;;;5076897;28;20463;-69
2022/11/18 06:11:59;;;;;;;4.80;2.20;;;11.40;97.30;;;;;;5075687;28;20483;-68
2022/11/18 06:14:31;;;;;;;4.37;2.00;;;11.40;97.30;;;;;;5074691;28;20545;-68
2022/11/18 06:17:02;;;;;;;4.40;1.43;;;11.30;97.30;;;;;;5075154;28;20428;-68
2022/11/18 06:19:29;;;;;;;4.00;1.63;;;11.40;97.40;;;;;;5075256;28;20449;-68
2022/11/18 06:21:56;;;;;;;2.73;1.60;;;11.30;97.30;;;;;;5076672;28;20432;-68
2022/11/18 06:24:23;;;;;;;12.83;2.50;;;11.30;97.40;;;;;;5076333;28;20448;-68
2022/11/18 06:26:50;;;;;;;6.67;1.80;;;11.30;97.30;;;;;;5075849;28;20575;-68
2022/11/18 06:29:20;;;;;;;6.10;1.50;;;11.30;97.40;;;;;;5074524;28;20448;-68
2022/11/18 06:31:47;;;;;;;7.17;1.97;;;11.30;97.50;;;;;;5075253;28;20448;-68
2022/11/18 06:34:13;;;;;;;3.83;1.50;;;11.30;97.50;;;;;;5075110;28;20435;-69
2022/11/18 06:36:40;;;;;;;5.63;2.17;;;11.30;97.40;;;;;;5074814;28;20452;-68
2022/11/18 06:39:07;;;;;;;7.83;1.97;;;11.30;97.50;;;;;;5074198;28;20458;-68
2022/11/18 06:41:34;;;;;;;6.90;1.87;;;11.30;97.50;;;;;;5074072;28;20434;-68
2022/11/18 06:44:00;;;;;;;3.20;1.97;;;11.30;97.50;;;;;;5073990;28;20467;-69
2022/11/18 06:49:13;;;;;;;2.30;1.53;;;11.30;97.50;;;;;;5074677;28;20228;-69
2022/11/18 06:51:40;;;;;;;6.60;2.20;;;11.30;97.50;;;;;;5073913;28;20451;-68
2022/11/18 06:54:07;;;;;;;5.47;2.00;;;11.30;97.50;;;;;;5074364;28;20472;-69
2022/11/18 06:56:35;;;;;;;6.10;2.07;;;11.30;97.40;;;;;;5078601;28;20799;-69
2022/11/18 06:59:02;;;;;;;6.83;2.23;;;11.30;97.50;;;;;;5077548;28;20449;-68
2022/11/18 07:01:32;;;;;;;6.30;1.87;;;11.30;97.40;;;;;;5077740;28;20447;-68
2022/11/18 07:04:00;;;;;;;4.27;1.90;;;11.30;97.30;;;;;;5077563;28;21019;-69
2022/11/18 07:06:29;;;;;;;4.20;1.90;;;11.30;97.20;;;;;;5077146;28;20430;-69
2022/11/18 07:08:56;;;;;;;3.73;2.30;;;11.20;97.20;;;;;;5077578;28;20431;-68
2022/11/18 07:11:24;;;;;;;7.70;2.03;;;11.20;97.30;;;;;;5077164;28;20450;-68
2022/11/18 07:13:51;;;;;;;5.23;1.97;;;11.20;97.30;;;;;;5077576;28;20483;-69
2022/11/18 07:16:19;;;;;;;5.83;2.13;;;11.30;97.40;;;;;;5077310;28;20447;-69
2022/11/18 07:18:48;;;;;;;7.53;1.97;;;11.30;97.30;;;;;;5077229;28;21010;-68
2022/11/18 07:21:17;;;;;;;5.13;1.50;;;11.20;97.30;;;;;;5077647;28;20448;-68
2022/11/18 07:23:44;;;;;;;5.80;2.03;;;11.20;97.20;;;;;;5081243;28;20471;-68
2022/11/18 07:26:12;;;;;;;4.07;2.03;;;11.20;97.30;;;;;;5080512;28;20450;-68
2022/11/18 07:28:38;;;;;;;4.27;1.80;;;11.20;97.30;;;;;;5078584;28;20515;-69
2022/11/18 07:31:07;;;;;;;7.33;2.30;;;11.30;97.30;;;;;;5078560;28;20447;-68
2022/11/18 07:33:35;;;;;;;8.43;3.93;;;11.30;97.40;;;;;;5078298;28;21028;-68
2022/11/18 07:36:04;;;;;;;7.03;2.40;;;11.30;97.50;;;;;;5077636;28;20459;-68
2022/11/18 07:38:31;;;;;;;7.77;2.10;;;11.20;97.30;;;;;;5077218;28;20427;-68
2022/11/18 07:41:04;;;;;;;4.37;1.50;;;11.20;97.20;;;;;;5079187;28;20791;-69
2022/11/18 07:43:32;;;;;;;8.00;2.17;;;11.20;97.20;;;;;;5078238;28;20472;-69
2022/11/18 07:45:58;;;;;;;5.37;3.23;;;11.20;97.00;;;;;;5078436;28;20455;-68
2022/11/18 07:48:25;;;;;;;6.27;1.83;;;11.10;97.10;;;;;;5077979;28;20489;-68
2022/11/18 07:50:52;;;;;;;4.93;2.30;;;11.10;97.20;;;;;;5077846;28;20451;-68
2022/11/18 07:53:20;;;;;;;3.20;2.37;;;11.10;97.20;;;;;;5076935;28;20530;-68
2022/11/18 07:55:47;;;;;;;5.50;1.77;;;11.10;97.20;;;;;;5076877;28;20460;-68
2022/11/18 07:58:14;;;;;;;8.03;2.40;;;11.10;97.10;;;;;;5077217;28;20444;-68
2022/11/18 08:00:40;;;;;;;8.20;2.90;;;11.00;97.10;;;;;;5076938;28;20448;-68
2022/11/18 08:03:07;;;;;;;3.17;1.90;;;11.10;97.10;;;;;;5076599;28;20475;-68
2022/11/18 08:05:34;;;;;;;4.73;2.53;;;11.10;97.10;;;;;;5077821;28;20537;-68
2022/11/18 08:08:01;;;;;;;5.37;2.10;;;11.10;97.00;;;;;;5077345;28;20483;-68
2022/11/18 08:10:29;;;;;;;6.20;2.63;;;11.00;96.90;;;;;;5077988;28;20448;-68
2022/11/18 08:12:56;;;;;;;11.23;2.77;;;11.00;96.90;;;;;;5078145;28;21021;-68
2022/11/18 08:15:23;;;;;;;6.47;2.40;;;11.00;97.00;;;;;;5080029;28;20437;-68
2022/11/18 08:17:50;;;;;;;9.63;2.57;;;11.00;97.00;;;;;;5080238;28;20942;-68
2022/11/18 08:20:17;;;;;;;6.20;2.50;;;11.00;97.00;;;;;;5080235;28;20461;-68
2022/11/18 08:22:44;;;;;;;5.33;2.27;;;11.00;97.00;;;;;;5078896;28;20482;-68
2022/11/18 08:25:11;;;;;;;5.57;2.60;;;10.90;97.00;;;;;;5078847;28;20440;-69
2022/11/18 08:27:40;;;;;;;3.60;2.60;;;10.90;97.10;;;;;;5078753;28;20567;-69
2022/11/18 08:30:07;;;;;;;3.30;2.50;;;11.00;97.30;;;;;;5078221;28;20443;-69
2022/11/18 08:32:34;;;;;;;5.30;2.37;;;11.00;97.30;;;;;;5079035;28;20559;-69
2022/11/18 08:35:01;;;;;;;6.00;2.40;;;11.00;97.30;;;;;;5080580;28;20435;-68
2022/11/18 08:37:28;;;;;;;4.70;2.70;;;11.00;97.30;;;;;;5081102;28;20455;-68
2022/11/18 08:39:54;;;;;;;5.67;2.33;;;11.00;97.30;;;;;;5079702;28;20468;-69
2022/11/18 08:42:21;;;;;;;7.90;2.43;;;11.00;97.20;;;;;;5082405;28;20479;-69
2022/11/18 08:44:49;;;;;;;4.00;2.10;;;11.00;97.20;;;;;;5080654;28;20443;-69
2022/11/18 08:47:16;;;;;;;5.23;3.73;;;11.00;97.20;;;;;;5080927;28;20467;-69
2022/11/18 08:49:43;;;;;;;7.37;2.40;;;11.10;97.30;;;;;;5080824;28;20519;-68
2022/11/18 08:52:10;;;;;;;6.23;2.83;;;11.10;97.20;;;;;;5080882;28;20865;-68
2022/11/18 08:54:37;;;;;;;3.43;2.17;;;11.10;97.10;;;;;;5078642;28;20936;-68
2022/11/18 08:57:04;;;;;;;6.40;2.30;;;11.20;97.10;;;;;;5079335;28;20447;-68
2022/11/18 08:59:31;;;;;;;4.13;2.50;;;11.20;97.00;;;;;;5078507;28;20436;-68
2022/11/18 09:01:59;;;;;;;6.00;2.60;;;11.20;96.90;;;;;;5082112;28;20463;-69
2022/11/18 09:04:26;;;;;;;3.10;2.20;;;11.20;97.00;;;;;;5085123;28;20455;-68
2022/11/18 09:06:52;;;;;;;5.60;2.27;;;11.30;97.10;;;;;;5084031;28;20464;-68
2022/11/18 09:09:19;;;;;;;7.87;2.63;;;11.30;97.00;;;;;;5085080;28;20478;-69
2022/11/18 09:11:46;;;;;;;5.37;2.43;;;11.40;97.00;;;;;;5084710;28;20517;-69
2022/11/18 09:14:13;;;;;;;7.53;4.47;;;11.40;96.60;;;;;;5085683;28;20454;-68
2022/11/18 09:16:39;;;;;;;6.67;3.93;;;11.40;96.50;;;;;;5085706;28;20435;-68
2022/11/18 09:19:07;;;;;;;3.87;2.00;;;11.50;96.40;;;;;;5084318;28;20452;-68
2022/11/18 09:21:34;;;;;;;3.43;2.30;;;11.50;96.50;;;;;;5084550;28;20447;-68
2022/11/18 09:24:04;;;;;;;5.20;2.07;;;11.60;96.20;;;;;;5083411;28;20487;-68
2022/11/18 09:26:31;;;;;;;4.30;2.30;;;11.60;96.00;;;;;;5087698;28;20404;-69
2022/11/18 09:28:58;;;;;;;7.33;3.00;;;11.60;96.10;;;;;;5087075;28;20475;-68
2022/11/18 09:31:25;;;;;;;5.10;2.13;;;11.60;95.90;;;;;;5087135;28;20501;-69
2022/11/18 09:33:51;;;;;;;6.77;3.40;;;11.70;96.00;;;;;;5085987;28;20982;-69
2022/11/18 09:36:21;;;;;;;5.93;2.67;;;11.70;96.00;;;;;;5084003;28;20467;-69
2022/11/18 09:38:49;;;;;;;6.47;2.40;;;11.80;95.90;;;;;;5085400;28;20447;-69
2022/11/18 09:41:30;;;;;;;12.13;3.00;;;11.80;95.70;;;;;;5087416;28;20452;-69
2022/11/18 09:44:07;;;;;;;6.00;2.33;;;11.80;95.60;;;;;;5076049;28;20472;-69
2022/11/18 09:46:43;;;;;;;5.33;2.00;;;12.00;95.50;;;;;;5076965;28;20433;-70
2022/11/18 09:49:14;;;;;;;6.27;2.00;;;12.00;94.90;;;;;;5079352;28;20464;-70
2022/11/18 09:51:45;;;;;;;3.77;1.80;;;12.00;95.00;;;;;;5084554;28;20436;-70
2022/11/18 09:54:20;;;;;;;4.27;2.17;;;12.00;94.90;;;;;;5088305;28;20466;-70
2022/11/18 09:56:48;;;;;;;3.00;1.80;;;12.10;94.90;;;;;;5090463;28;20924;-70
2022/11/18 09:59:17;;;;;;;3.50;2.40;;;12.10;95.10;;;;;;5089215;28;20435;-70
2022/11/18 10:01:44;;;;;;;5.37;1.83;;;12.20;95.10;;;;;;5087839;28;20443;-70
2022/11/18 10:04:16;;;;;;;7.30;2.33;;;12.40;95.30;;;;;;5084765;28;20478;-70
2022/11/18 10:06:45;;;;;;;5.83;1.93;;;12.50;94.70;;;;;;5080704;28;20498;-70
2022/11/18 10:09:22;;;;;;;6.77;2.60;;;12.50;94.30;;;;;;5076544;28;20507;-70
2022/11/18 10:12:04;;;;;;;6.87;1.63;;;12.60;93.70;;;;;;5078694;28;20905;-70
2022/11/18 10:14:45;;;;;;;5.90;2.37;;;12.70;93.90;;;;;;5075748;28;20443;-70
2022/11/18 10:17:32;;;;;;;4.80;2.10;;;12.90;93.90;;;;;;5074047;28;20428;-71
2022/11/18 10:20:17;;;;;;;4.27;1.90;;;13.00;93.10;;;;;;5073702;28;20432;-71
2022/11/18 10:22:52;;;;;;;6.03;1.90;;;13.00;92.50;;;;;;5073638;28;20558;-70
2022/11/18 10:25:19;;;;;;;5.10;1.80;;;13.00;92.20;;;;;;5073532;28;20429;-70
2022/11/18 10:27:48;;;;;;;6.07;1.80;;;12.90;92.00;;;;;;5072815;28;21022;-70
2022/11/18 10:30:17;;;;;;;4.37;1.50;;;13.10;92.30;;;;;;5078096;28;20460;-70
2022/11/18 10:32:55;;;;;;;6.63;2.17;;;13.10;91.90;;;;;;5080867;28;20463;-70
2022/11/18 10:35:29;;;;;;;10.67;2.90;;;13.00;91.90;;;;;;5077847;28;20433;-70
2022/11/18 10:38:06;;;;;;;6.40;2.13;;;13.10;92.30;;;;;;5077711;28;20451;-70
2022/11/18 10:40:34;;;;;;;6.80;1.60;;;13.30;92.10;;;;;;5077359;28;20428;-70
2022/11/18 10:43:01;;;;;;;6.10;1.87;;;13.40;91.80;;;;;;5077026;28;20496;-70
2022/11/18 10:45:31;;;;;;;4.37;2.07;;;13.40;91.70;;;;;;5077187;28;20908;-70
2022/11/18 10:48:00;;;;;;;3.67;1.97;;;13.60;91.80;;;;;;5076966;28;20484;-70
2022/11/18 10:50:31;;;;;;;5.03;2.20;;;13.60;90.90;;;;;;5077164;28;20481;-69
2022/11/18 10:52:57;;;;;;;7.80;1.80;;;13.70;90.50;;;;;;5077213;28;20469;-69
2022/11/18 10:55:26;;;;;;;8.97;2.27;;;13.70;90.60;;;;;;5077216;28;20433;-69
2022/11/18 10:58:00;;;;;;;6.17;1.73;;;13.60;90.90;;;;;;5078612;28;20546;-69
2022/11/18 11:00:42;;;;;;;9.13;2.27;;;13.50;91.10;;;;;;5077191;28;20440;-69
2022/11/18 11:03:35;;;;;;;5.43;1.60;;;13.40;91.30;;;;;;5076859;28;20483;-69
2022/11/18 11:06:28;;;;;;;6.40;1.80;;;13.30;91.40;;;;;;5073242;28;20455;-69
2022/11/18 11:08:57;;;;;;;5.00;1.77;;;13.30;91.50;;;;;;5076511;28;20476;-69
2022/11/18 11:11:28;;;;;;;5.00;1.90;;;13.40;91.50;;;;;;5076669;28;20432;-70
2022/11/18 11:14:01;;;;;;;9.03;3.47;;;13.40;91.30;;;;;;5076428;28;20467;-69
2022/11/18 11:16:30;;;;;;;7.73;2.30;;;13.40;91.30;;;;;;5077304;28;20443;-69
2022/11/18 11:19:02;;;;;;;5.33;1.57;;;13.40;91.20;;;;;;5077468;28;20432;-69
2022/11/18 11:21:29;;;;;;;6.30;2.10;;;13.30;91.10;;;;;;5077262;28;20448;-69
2022/11/18 11:23:56;;;;;;;6.40;2.40;;;13.30;91.50;;;;;;5077657;28;20471;-69
2022/11/18 11:26:34;;;;;;;5.70;2.10;;;13.40;91.10;;;;;;5077013;28;20931;-70
2022/11/18 11:29:07;;;;;;;7.67;2.30;;;13.50;91.20;;;;;;5076516;28;20479;-69
2022/11/18 11:31:44;;;;;;;4.67;1.80;;;13.80;91.00;;;;;;5077006;28;20436;-69
2022/11/18 11:34:20;;;;;;;5.50;1.93;;;14.00;88.80;;;;;;5076967;28;20982;-70
2022/11/18 11:36:51;;;;;;;3.70;1.47;;;14.20;87.90;;;;;;5076126;28;20459;-70
2022/11/18 11:39:43;;;;;;;8.53;2.17;;;14.20;85.40;;;;;;5076379;28;20437;-70
2022/11/18 11:42:24;;;;;;;6.17;1.80;;;14.20;85.20;;;;;;5075395;28;20464;-70
2022/11/18 11:45:05;;;;;;;5.83;1.93;;;14.30;85.60;;;;;;5076443;28;20433;-70
2022/11/18 11:47:48;;;;;;;8.53;1.67;;;14.20;84.70;;;;;;5076415;28;20433;-70
2022/11/18 11:50:23;;;;;;;5.03;1.77;;;14.20;85.00;;;;;;5076406;28;20798;-70
2022/11/18 11:53:07;;;;;;;4.73;1.97;;;14.20;84.60;;;;;;5076529;28;20546;-70
2022/11/18 11:55:45;;;;;;;3.17;1.37;;;14.00;84.10;;;;;;5076668;28;20432;-70
2022/11/18 11:58:32;;;;;;;7.83;2.07;;;13.90;84.80;;;;;;5076362;28;20809;-70
2022/11/18 12:01:06;;;;;;;7.20;2.03;;;13.70;86.30;;;;;;5076158;28;20423;-70
2022/11/18 12:03:46;;;;;;;7.57;1.53;;;13.60;87.50;;;;;;5076007;28;20466;-70
2022/11/18 12:06:14;;;;;;;5.60;2.53;;;13.50;88.50;;;;;;5075735;28;20429;-70
2022/11/18 12:08:53;;;;;;;4.77;2.60;;;13.30;88.70;;;;;;5075570;28;20488;-70
2022/11/18 12:11:28;;;;;;;5.40;2.33;;;13.30;89.70;;;;;;5076653;28;20441;-70
2022/11/18 12:14:02;;;;;;;4.87;2.30;;;13.20;90.10;;;;;;5075753;28;20472;-71
2022/11/18 12:16:36;;;;;;;7.90;2.37;;;13.20;90.20;;;;;;5075269;28;20429;-70
2022/11/18 12:19:08;;;;;;;7.03;2.40;;;13.10;89.80;;;;;;5075428;28;20799;-70
2022/11/18 12:22:02;;;;;;;6.53;2.30;;;13.00;90.20;;;;;;5075397;28;20434;-70
2022/11/18 12:24:33;;;;;;;6.40;2.10;;;13.10;90.60;;;;;;5075134;28;20818;-70
2022/11/18 12:27:02;;;;;;;6.53;3.37;;;13.20;90.50;;;;;;5075130;28;20519;-70
2022/11/18 12:29:41;;;;;;;6.37;2.50;;;13.30;90.40;;;;;;5075156;28;20464;-70
2022/11/18 12:32:31;;;;;;;4.77;1.83;;;13.30;90.20;;;;;;5075235;28;20502;-70
2022/11/18 12:35:01;;;;;;;6.37;1.87;;;13.40;90.10;;;;;;5074753;28;20516;-70
2022/11/18 12:38:01;;;;;;;5.87;1.87;;;13.50;90.20;;;;;;5075043;28;20468;-70
2022/11/18 12:40:37;;;;;;;6.40;3.13;;;13.60;89.80;;;;;;5074998;28;20456;-71
2022/11/18 12:45:57;;;;;;;6.30;2.13;;;13.80;89.30;;;;;;5075003;28;20428;-71
2022/11/18 12:48:41;;;;;;;4.20;1.83;;;13.90;88.80;;;;;;5074566;28;20480;-71
2022/11/18 12:51:47;;;;;;;7.50;1.90;;;13.90;88.60;;;;;;5075099;28;20420;-71
2022/11/18 12:54:34;;;;;;;7.10;2.33;;;13.90;88.50;;;;;;5076429;28;20433;-71
2022/11/18 12:57:03;;;;;;;8.40;2.63;;;13.90;88.40;;;;;;5074783;28;20425;-71
2022/11/18 12:59:33;;;;;;;7.73;2.83;;;13.90;88.40;;;;;;5074840;28;20464;-70
2022/11/18 13:02:23;;;;;;;5.90;2.60;;;13.90;88.20;;;;;;5075043;28;20429;-71
2022/11/18 13:05:10;;;;;;;5.40;2.23;;;13.90;88.60;;;;;;5074526;28;20428;-70
2022/11/18 13:10:31;;;;;;;5.17;2.50;;;13.90;89.10;;;;;;5074638;28;20522;-70
2022/11/18 13:12:59;;;;;;;3.33;2.03;;;13.90;89.40;;;;;;5073849;28;21013;-70
2022/11/18 13:18:15;;;;;;;5.03;2.70;;;14.00;89.90;;;;;;5074016;28;20455;-70
2022/11/18 13:20:43;;;;;;;8.70;2.50;;;14.00;89.70;;;;;;5074251;28;20429;-70
2022/11/18 13:23:51;;;;;;;6.23;2.80;;;14.00;89.90;;;;;;5073933;28;20475;-70
2022/11/18 13:26:20;;;;;;;5.30;2.10;;;14.00;90.00;;;;;;5063475;28;20452;-70